Time;durP1;ratioP1;P1;durP2;ratioP2;P2;SDS_P1;SDS_P2;PMS_P1;PMS_P2;Temp;Humidity;BMP_temperature;BMP_pressure;BME280_temperature;BME280_humidity;BME280_pressure;Samples;Min_cycle;Max_cycle;Signal;HPM_P1;HPM_P2
2024/02/25 00:00:45;;;;;;;;;;;6.70;99.90;;;6.85;65.84;99024.72;5021717;28;20383;-86
2024/02/25 00:03:13;;;;;;;;;;;6.70;99.90;;;6.79;65.60;99015.00;5040775;28;19925;-85
2024/02/25 00:05:41;;;;;;;;;;;6.70;99.90;;;6.86;65.79;99014.91;5034451;28;19921;-85
2024/02/25 00:08:09;;;;;;;;;;;6.70;99.90;;;6.91;66.24;99017.69;5020121;28;19921;-85
2024/02/25 00:10:41;;;;;;;;;;;6.80;99.90;;;6.93;66.25;99013.00;5030058;28;19948;-85
2024/02/25 00:13:09;;;;;;;;;;;6.80;99.90;;;6.94;66.21;99012.78;5022870;28;19921;-85
2024/02/25 00:15:39;;;;;;;;;;;6.80;99.90;;;6.95;65.88;99005.63;5019887;28;19983;-85
2024/02/25 00:18:14;;;;;;;;;;;6.80;99.90;;;6.98;66.36;98999.88;5039014;28;19921;-85
2024/02/25 00:20:41;;;;;;;;;;;6.80;99.90;;;7.00;66.81;98997.81;5040474;28;20012;-85
2024/02/25 00:23:11;;;;;;;;;;;6.80;99.90;;;6.96;66.68;98986.03;5038527;28;20407;-85
2024/02/25 00:25:41;;;;;;;;;;;6.80;99.90;;;6.97;66.78;98983.16;5040070;28;20410;-85
2024/02/25 00:28:08;;;;;;;;;;;6.80;99.90;;;6.96;66.93;98986.03;5037931;28;20407;-85
2024/02/25 00:30:38;;;;;;;;;;;6.80;99.90;;;6.96;67.36;98976.25;5027973;28;19921;-85
2024/02/25 00:33:07;;;;;;;;;;;6.80;99.90;;;6.97;67.05;98977.03;5028464;28;19928;-86
2024/02/25 00:35:35;;;;;;;;;;;6.80;99.90;;;7.02;67.17;98982.47;5026219;28;19980;-85
2024/02/25 00:38:03;;;;;;;;;;;6.90;99.90;;;7.03;67.03;98984.13;5040796;28;20431;-85
2024/02/25 00:40:32;;;;;;;;;;;6.90;99.90;;;7.02;66.99;98987.78;5032913;28;19921;-85
2024/02/25 00:43:00;;;;;;;;;;;6.90;99.90;;;7.03;66.60;98984.13;5060870;28;19927;-85
2024/02/25 00:45:27;;;;;;;;;;;6.90;99.90;;;7.00;66.12;98986.41;5038439;28;20012;-85
2024/02/25 00:47:56;;;;;;;;;;;6.90;99.90;;;6.95;66.66;98985.22;5008567;28;19928;-85
2024/02/25 00:50:30;;;;;;;;;;;6.90;99.90;;;6.95;67.26;98971.97;5024216;28;19925;-85
2024/02/25 00:52:59;;;;;;;;;;;6.90;99.90;;;6.93;67.45;98967.94;5033195;28;19920;-85
2024/02/25 00:55:26;;;;;;;;;;;6.90;99.90;;;7.00;68.12;98966.00;5042998;28;19921;-85
2024/02/25 00:57:54;;;;;;;;;;;6.90;99.90;;;6.86;67.91;98954.78;5043194;28;19925;-85
2024/02/25 01:00:22;;;;;;;;;;;6.90;99.90;;;6.88;68.18;98955.38;5028209;28;19921;-85
2024/02/25 01:02:49;;;;;;;;;;;6.90;99.90;;;6.94;68.52;98956.31;5042981;28;19920;-85
2024/02/25 01:05:17;;;;;;;;;;;6.90;99.90;;;6.94;68.74;98945.72;5045967;28;19921;-85
2024/02/25 01:07:51;;;;;;;;;;;6.90;99.90;;;6.99;68.86;98953.00;5044691;28;19921;-85
2024/02/25 01:10:22;;;;;;;;;;;6.90;99.90;;;6.96;69.07;98948.94;5041265;28;19921;-85
2024/02/25 01:12:51;;;;;;;;;;;6.90;99.90;;;6.96;68.53;98949.72;5028824;28;19956;-86
2024/02/25 01:15:18;;;;;;;;;;;6.90;99.90;;;6.92;68.54;98948.56;5025608;28;19952;-85
2024/02/25 01:17:46;;;;;;;;;;;6.90;99.90;;;6.94;68.80;98943.88;5040852;28;19922;-85
2024/02/25 01:20:16;;;;;;;;;;;6.90;99.90;;;6.99;68.15;98935.25;5031654;28;19932;-85
2024/02/25 01:22:45;;;;;;;;;;;6.90;99.90;;;6.99;68.03;98937.88;5044535;28;20384;-85
2024/02/25 01:25:13;;;;;;;;;;;6.90;99.90;;;6.99;68.00;98932.59;5043852;28;19921;-86
2024/02/25 01:27:41;;;;;;;;;;;6.90;99.90;;;6.96;67.77;98933.84;5060538;28;19927;-85
2024/02/25 01:30:10;;;;;;;;;;;6.90;99.90;;;7.01;68.05;98933.16;5032825;28;19921;-86
2024/02/25 01:32:37;;;;;;;;;;;7.00;99.90;;;6.95;66.75;98939.38;5044434;28;19970;-85
2024/02/25 01:35:08;;;;;;;;;;;6.90;99.90;;;6.87;67.12;98931.72;5043232;28;19950;-85
2024/02/25 01:37:38;;;;;;;;;;;6.90;99.90;;;6.95;67.69;98936.72;5042984;28;19921;-85
2024/02/25 01:40:09;;;;;;;;;;;6.90;99.90;;;6.95;67.08;98926.94;5045391;28;19987;-85
2024/02/25 01:42:37;;;;;;;;;;;7.00;99.90;;;6.96;66.68;98928.53;5048667;28;20389;-85
2024/02/25 01:45:07;;;;;;;;;;;7.00;99.90;;;6.90;66.43;98921.50;5028514;28;19992;-85
2024/02/25 01:47:35;;;;;;;;;;;6.90;99.90;;;6.88;66.60;98920.09;5039258;28;19921;-85
2024/02/25 01:50:09;;;;;;;;;;;6.90;99.90;;;6.90;66.64;98918.84;5037884;28;20350;-85
2024/02/25 01:52:38;;;;;;;;;;;7.00;99.90;;;7.00;67.39;98923.59;5027340;28;19921;-85
2024/02/25 01:55:18;;;;;;;;;;;7.00;99.90;;;6.97;65.98;98926.69;5020326;28;19921;-85
2024/02/25 01:57:48;;;;;;;;;;;7.00;99.90;;;6.97;66.13;98924.84;5003099;28;19921;-85
2024/02/25 02:00:17;;;;;;;;;;;7.00;99.90;;;6.91;64.96;98924.94;5035346;28;19967;-85
2024/02/25 02:02:46;;;;;;;;;;;7.00;99.90;;;6.77;65.13;98923.50;5018784;28;19925;-85
2024/02/25 02:05:14;;;;;;;;;;;6.80;99.90;;;6.77;65.42;98919.03;5006377;28;20023;-85
2024/02/25 02:07:43;;;;;;;;;;;7.00;99.90;;;6.87;66.32;98913.97;5055268;28;19921;-85
2024/02/25 02:10:51;;;;;;;;;;;7.00;99.90;;;6.87;65.43;98919.28;5055386;28;19921;-86
2024/02/25 02:18:50;;;;;;;;;;;7.00;99.90;;;6.75;65.49;98918.44;5039543;28;20414;-85
2024/02/25 02:21:31;;;;;;;;;;;7.00;99.90;;;6.73;66.02;98909.91;5054881;28;19928;-86
2024/02/25 02:23:59;;;;;;;;;;;6.90;99.90;;;6.69;65.89;98922.81;5031338;28;19921;-85
2024/02/25 02:26:35;;;;;;;;;;;6.90;99.90;;;6.71;65.89;98918.06;5020888;28;19925;-85
2024/02/25 02:29:19;;;;;;;;;;;6.90;99.90;;;6.76;66.13;98922.72;5015096;28;19921;-85
2024/02/25 02:31:49;;;;;;;;;;;6.90;99.90;;;6.77;66.22;98920.84;5038650;28;19921;-85
2024/02/25 02:40:57;;;;;;;;;;;6.90;99.90;;;6.71;66.44;98912.78;5039768;28;20415;-85
2024/02/25 03:13:21;;;;;;;;;;;6.80;99.90;;;6.81;66.93;98911.44;5773037;23;19922;-85
2024/02/25 03:15:52;;;;;;;;;;;6.90;99.90;;;6.70;66.11;98913.00;4987313;28;19993;-85
2024/02/25 03:18:24;;;;;;;;;;;6.90;99.90;;;6.68;66.45;98910.56;4972443;28;20013;-85
2024/02/25 07:05:43;;;;;;;;;;;7.00;99.90;;;6.86;69.64;98969.88;4908716;29;19924;-89
2024/02/25 07:08:10;;;;;;;;;;;6.90;99.90;;;6.87;69.46;98974.13;4901444;29;19923;-90
2024/02/25 07:10:38;;;;;;;;;;;6.90;99.90;;;6.88;70.04;98970.44;4890217;29;20357;-86
2024/02/25 07:13:20;;;;;;;;;;;6.90;99.90;;;6.92;69.88;98974.25;4910173;29;19924;-85
2024/02/25 07:15:56;;;;;;;;;;;6.90;99.90;;;6.84;69.52;98983.34;4907261;29;20395;-85
2024/02/25 07:18:24;;;;;;;;;;;6.90;99.90;;;6.88;70.03;98983.69;4908324;29;19924;-85
2024/02/25 07:20:56;;;;;;;;;;;6.90;99.90;;;6.96;70.14;98981.53;4909764;29;19923;-86
2024/02/25 07:23:23;;;;;;;;;;;7.00;99.90;;;7.00;70.14;98981.09;4891746;29;19923;-85
2024/02/25 07:25:50;;;;;;;;;;;7.00;99.90;;;7.03;70.52;98986.78;4907799;29;19932;-85
2024/02/25 07:28:21;;;;;;;;;;;7.00;99.90;;;7.09;70.53;98983.22;4908485;29;19927;-84
2024/02/25 07:30:48;;;;;;;;;;;7.00;99.90;;;7.14;70.52;98988.66;4877843;29;19928;-85
2024/02/25 07:33:19;;;;;;;;;;;7.10;99.90;;;7.14;70.23;98983.34;4872025;29;19924;-85
2024/02/25 07:35:46;;;;;;;;;;;7.10;99.90;;;7.10;69.82;98992.78;4887472;29;19923;-85
2024/02/25 07:38:19;;;;;;;;;;;7.10;99.90;;;7.03;69.98;98994.72;4888117;29;19945;-87
2024/02/25 07:43:29;;;;;;;;;;;7.10;99.90;;;7.07;70.20;98995.88;4909619;29;20025;-84
2024/02/25 07:45:57;;;;;;;;;;;7.10;99.90;;;7.11;69.87;98996.22;4914763;29;19939;-85
2024/02/25 07:48:27;;;;;;;;;;;7.20;99.90;;;7.15;70.38;98990.25;4917131;29;19951;-85
2024/02/25 07:51:00;;;;;;;;;;;7.20;99.90;;;7.19;70.13;99002.03;4910294;29;19926;-84
2024/02/25 07:53:29;;;;;;;;;;;7.20;99.90;;;7.04;69.51;98996.34;4921056;29;19923;-88
2024/02/25 07:55:57;;;;;;;;;;;7.20;99.90;;;7.09;70.05;98999.13;4927117;29;19923;-87
2024/02/25 07:58:27;;;;;;;;;;;7.20;99.90;;;7.17;69.77;99006.78;4919842;29;19924;-83
2024/02/25 08:00:57;;;;;;;;;;;7.20;99.90;;;7.18;69.79;99002.28;4888431;29;20316;-81
2024/02/25 08:03:24;;;;;;;;;;;7.20;99.90;;;7.24;69.81;99004.00;4909144;29;20358;-80
2024/02/25 08:05:53;;;;;;;;;;;7.30;99.90;;;7.14;69.46;99007.22;4902243;29;19927;-81
2024/02/25 08:08:20;;;;;;;;;;;7.20;99.90;;;7.04;69.62;99012.25;4902893;29;19923;-80
2024/02/25 08:10:48;;;;;;;;;;;7.20;99.90;;;7.06;69.84;99007.50;4901737;29;19930;-80
2024/02/25 08:13:16;;;;;;;;;;;7.20;99.90;;;7.16;70.00;99013.06;4902755;29;19927;-80
2024/02/25 08:15:43;;;;;;;;;;;7.20;99.90;;;7.15;69.75;99011.47;4903802;29;19930;-81
2024/02/25 08:18:12;;;;;;;;;;;7.30;99.90;;;7.17;69.93;99009.41;4886482;29;19990;-81
2024/02/25 08:20:40;;;;;;;;;;;7.30;99.90;;;7.20;69.55;99014.25;4901581;29;20388;-80
2024/02/25 08:23:07;;;;;;;;;;;7.30;99.90;;;7.20;69.17;99016.91;4903178;29;19923;-80
2024/02/25 08:25:35;;;;;;;;;;;7.30;99.90;;;7.17;69.20;99020.03;4902446;29;20296;-80
2024/02/25 08:28:05;;;;;;;;;;;7.30;99.90;;;7.18;69.41;99016.34;4855642;29;20000;-80
2024/02/25 08:30:33;;;;;;;;;;;7.30;99.90;;;7.12;69.41;99016.41;4901732;29;19962;-80
2024/02/25 08:33:01;;;;;;;;;;;7.30;99.90;;;7.03;69.63;99012.44;4902685;29;20018;-81
2024/02/25 08:35:29;;;;;;;;;;;7.20;99.90;;;7.11;70.08;99014.78;4903382;29;19923;-79
2024/02/25 08:37:56;;;;;;;;;;;7.30;99.90;;;7.16;69.99;99012.28;4903616;29;19927;-80
2024/02/25 08:40:27;;;;;;;;;;;7.30;99.90;;;7.12;69.98;99017.22;4904189;29;19930;-80
2024/02/25 08:42:54;;;;;;;;;;;7.30;99.90;;;7.21;70.37;99026.47;4904347;29;19928;-81
2024/02/25 08:45:23;;;;;;;;;;;7.30;99.90;;;7.31;70.17;99025.94;4901732;29;20700;-80
2024/02/25 08:47:51;;;;;;;;;;;7.40;99.90;;;7.28;70.64;99018.44;4902056;29;19924;-80
2024/02/25 08:50:18;;;;;;;;;;;7.40;99.90;;;7.23;69.90;99021.78;4912506;29;19924;-81
2024/02/25 08:52:45;;;;;;;;;;;7.40;99.90;;;7.23;70.33;99024.41;4927002;29;19934;-80
2024/02/25 08:55:15;;;;;;;;;;;7.40;99.90;;;7.35;70.36;99021.00;4924740;29;20451;-80
2024/02/25 08:57:43;;;;;;;;;;;7.50;99.90;;;7.41;70.05;99012.13;4888239;29;19923;-80
2024/02/25 09:00:12;;;;;;;;;;;7.50;99.90;;;7.35;69.72;99021.00;4905344;29;19930;-80
2024/02/25 09:02:40;;;;;;;;;;;7.50;99.90;;;7.37;69.83;99024.22;4905028;29;20001;-80
2024/02/25 09:05:08;;;;;;;;;;;7.50;99.90;;;7.40;69.77;99024.56;4905247;29;20388;-80
2024/02/25 09:07:36;;;;;;;;;;;7.60;99.90;;;7.51;69.99;99022.19;4905521;29;19927;-80
2024/02/25 09:10:05;;;;;;;;;;;7.60;99.90;;;7.51;69.82;99024.84;4905276;29;20018;-80
2024/02/25 09:12:34;;;;;;;;;;;7.60;99.90;;;7.49;69.84;99023.22;4905240;29;20384;-80
2024/02/25 09:15:02;;;;;;;;;;;7.70;99.90;;;7.51;69.84;99030.94;4906543;29;20383;-79
2024/02/25 09:17:29;;;;;;;;;;;7.70;99.90;;;7.55;70.09;99026.81;4905907;29;20410;-80
2024/02/25 09:19:58;;;;;;;;;;;7.70;99.90;;;7.54;69.74;99027.03;4905339;29;20293;-80
2024/02/25 09:22:26;;;;;;;;;;;7.70;99.90;;;7.51;69.74;99027.50;4906709;29;19930;-80
2024/02/25 09:24:53;;;;;;;;;;;7.70;99.90;;;7.57;70.17;99027.41;4904889;29;19927;-80
2024/02/25 09:27:20;;;;;;;;;;;7.80;99.90;;;7.60;69.46;99024.28;4904300;29;19923;-80
2024/02/25 09:29:49;;;;;;;;;;;7.80;99.90;;;7.56;69.06;99035.56;4906913;29;19930;-80
2024/02/25 09:32:16;;;;;;;;;;;7.80;99.90;;;7.61;69.45;99025.94;4907991;29;19931;-80
2024/02/25 09:34:44;;;;;;;;;;;7.90;99.90;;;7.71;70.00;99034.13;4903479;29;19923;-78
2024/02/25 09:37:13;;;;;;;;;;;7.90;99.90;;;7.80;69.88;99026.63;4904116;29;19923;-80
2024/02/25 09:39:42;;;;;;;;;;;8.00;99.90;;;7.85;69.63;99025.94;4904474;29;20014;-80
2024/02/25 09:42:09;;;;;;;;;;;8.00;99.90;;;7.81;68.40;99022.97;4904455;29;19930;-80
2024/02/25 09:44:38;;;;;;;;;;;8.00;99.90;;;7.81;68.77;99025.63;4903926;29;19927;-80
2024/02/25 09:47:07;;;;;;;;;;;8.00;99.90;;;7.68;67.96;99016.00;4886936;29;19979;-80
2024/02/25 09:49:36;;;;;;;;;;;8.00;99.90;;;7.67;68.17;99027.66;4902897;29;19987;-80
2024/02/25 09:52:04;;;;;;;;;;;8.00;99.90;;;7.72;68.30;99017.16;4905175;29;19924;-80
2024/02/25 09:54:33;;;;;;;;;;;8.00;99.90;;;7.79;68.44;99022.34;4903076;29;20384;-80
2024/02/25 09:57:00;;;;;;;;;;;8.00;99.90;;;7.77;68.02;99015.69;4887188;29;19923;-80
2024/02/25 09:59:27;;;;;;;;;;;8.00;99.90;;;7.83;68.23;99012.09;4887375;29;19938;-80
2024/02/25 10:01:55;;;;;;;;;;;8.10;99.90;;;7.87;68.03;99014.06;4902282;29;20026;-80
2024/02/25 10:04:25;;;;;;;;;;;8.10;99.90;;;7.90;68.19;99015.44;4902733;29;19923;-80
2024/02/25 10:06:52;;;;;;;;;;;8.10;99.90;;;7.88;67.22;99012.22;4904503;29;19924;-78
2024/02/25 10:09:28;;;;;;;;;;;8.10;99.90;;;7.81;67.64;99014.16;4903369;29;20034;-80
2024/02/25 10:11:57;;;;;;;;;;;8.10;99.90;;;7.89;68.40;99013.84;4902888;29;20395;-80
2024/02/25 10:14:24;;;;;;;;;;;8.10;99.90;;;7.88;67.83;99012.22;4902528;29;20034;-80
2024/02/25 10:17:01;;;;;;;;;;;8.20;99.90;;;7.99;67.62;99006.91;4902456;29;19975;-80
2024/02/25 10:19:28;;;;;;;;;;;8.20;99.90;;;8.09;67.49;99006.34;4887419;29;19963;-80
2024/02/25 10:22:05;;;;;;;;;;;8.40;99.90;;;8.23;67.00;99004.25;4903812;29;20030;-80
2024/02/25 10:24:33;;;;;;;;;;;8.50;99.90;;;8.31;65.82;99008.44;4887005;29;19929;-80
2024/02/25 10:27:12;;;;;;;;;;;8.60;99.90;;;8.31;65.52;99001.25;4903456;29;19924;-80
2024/02/25 10:29:54;;;;;;;;;;;8.70;99.90;;;8.33;65.54;99011.66;4904274;29;19966;-80
2024/02/25 10:32:25;;;;;;;;;;;8.70;99.90;;;8.35;65.02;99006.94;4902368;29;19979;-80
2024/02/25 10:34:53;;;;;;;;;;;8.70;99.90;;;8.36;65.03;99003.22;4901359;29;19959;-80
2024/02/25 10:37:21;;;;;;;;;;;8.70;99.90;;;8.37;64.88;99010.19;4902676;29;19923;-80
2024/02/25 10:39:51;;;;;;;;;;;8.70;99.90;;;8.34;64.45;99010.59;4901612;29;19923;-80
2024/02/25 10:42:25;;;;;;;;;;;8.70;99.90;;;8.37;64.29;99013.63;4901675;29;19924;-80
2024/02/25 10:44:57;;;;;;;;;;;8.70;99.90;;;8.36;64.25;99012.03;4902989;29;19927;-80
2024/02/25 10:47:26;;;;;;;;;;;8.60;99.90;;;8.41;65.10;99003.38;4902946;29;19947;-80
2024/02/25 10:49:54;;;;;;;;;;;8.70;99.90;;;8.46;65.76;99006.94;4902862;29;19951;-80
2024/02/25 10:52:23;;;;;;;;;;;8.70;99.90;;;8.52;66.20;99010.50;4917358;29;19963;-80
2024/02/25 10:54:51;;;;;;;;;;;8.70;99.90;;;8.52;65.22;99006.00;4900856;29;19959;-80
2024/02/25 10:57:20;;;;;;;;;;;8.70;99.90;;;8.45;64.23;99007.16;4900525;29;19946;-80
2024/02/25 10:59:48;;;;;;;;;;;8.70;99.90;;;8.45;64.54;98999.19;4901387;29;20026;-80
2024/02/25 11:02:19;;;;;;;;;;;8.70;99.90;;;8.54;64.83;99002.28;4902366;29;20384;-80
2024/02/25 11:04:47;;;;;;;;;;;8.80;99.90;;;8.63;64.90;99000.88;4901196;29;20288;-80
2024/02/25 11:07:15;;;;;;;;;;;8.80;99.90;;;8.61;64.56;98998.47;4901686;29;20388;-80
2024/02/25 11:09:42;;;;;;;;;;;8.90;99.90;;;8.54;63.66;99008.44;4900319;29;19923;-80
2024/02/25 11:12:22;;;;;;;;;;;8.90;99.90;;;8.63;65.16;99003.53;4884926;29;19923;-78
2024/02/25 11:14:54;;;;;;;;;;;8.90;99.90;;;8.68;64.89;99004.44;4901556;29;20356;-80
2024/02/25 11:17:27;;;;;;;;;;;8.90;99.90;;;8.68;64.78;98998.31;4902674;29;20403;-80
2024/02/25 11:19:59;;;;;;;;;;;8.90;99.90;;;8.66;65.01;99005.75;4901557;29;20387;-80
2024/02/25 11:22:39;;;;;;;;;;;8.90;99.90;;;8.59;63.80;99008.53;4885159;29;20014;-80
2024/02/25 11:25:07;;;;;;;;;;;8.80;99.90;;;8.60;64.48;99001.38;4900051;29;19923;-80
2024/02/25 11:28:00;;;;;;;;;;;8.80;99.90;;;8.59;63.94;99005.88;4901373;29;19987;-80
2024/02/25 11:30:36;;;;;;;;;;;8.80;99.90;;;8.54;64.02;99000.47;4902180;29;19924;-80
2024/02/25 11:33:23;;;;;;;;;;;8.80;99.90;;;8.55;64.59;98995.94;4900735;29;19931;-80
2024/02/25 11:36:10;;;;;;;;;;;8.80;99.90;;;8.52;63.98;98987.38;4903697;29;20391;-80
2024/02/25 11:38:41;;;;;;;;;;;8.80;99.90;;;8.57;64.17;98988.53;4904550;29;20009;-80
2024/02/25 11:43:45;;;;;;;;;;;8.90;99.90;;;8.70;64.42;98978.47;5525584;23;19931;-80
2024/02/25 11:46:12;;;;;;;;;;;9.00;99.90;;;8.69;63.72;98987.47;4918959;29;19923;-80
2024/02/25 11:48:39;;;;;;;;;;;9.00;99.90;;;8.73;63.62;98977.97;4919041;29;19971;-80
2024/02/25 11:51:07;;;;;;;;;;;9.00;99.90;;;8.68;62.68;98971.75;4912362;29;20017;-80
2024/02/25 11:53:34;;;;;;;;;;;9.00;99.90;;;8.75;62.98;98970.59;4884832;29;19923;-80
2024/02/25 11:56:01;;;;;;;;;;;9.00;99.90;;;8.81;62.97;98970.69;4901235;29;20398;-80
2024/02/25 11:58:29;;;;;;;;;;;9.10;99.90;;;8.89;63.94;98965.00;4900595;29;20019;-80
2024/02/25 12:00:57;;;;;;;;;;;9.10;99.90;;;8.93;62.61;98972.28;4900550;29;20307;-80
2024/02/25 12:03:25;;;;;;;;;;;9.20;99.90;;;9.04;62.41;98965.28;4902084;29;19971;-81
2024/02/25 12:05:52;;;;;;;;;;;9.30;99.90;;;9.08;61.22;98968.25;4900238;29;19923;-80
2024/02/25 12:08:22;;;;;;;;;;;9.40;99.90;;;9.01;60.30;98965.75;4901266;29;19923;-80
2024/02/25 12:10:50;;;;;;;;;;;9.30;99.90;;;8.99;61.22;98959.88;4900748;29;20390;-81
2024/02/25 12:13:17;;;;;;;;;;;9.30;99.90;;;8.96;61.11;98965.66;4900107;29;19940;-81
2024/02/25 12:15:45;;;;;;;;;;;9.20;99.90;;;8.89;60.77;98955.16;4901770;29;19935;-81
2024/02/25 12:18:15;;;;;;;;;;;9.20;99.90;;;8.89;61.28;98967.66;4900849;29;20009;-80
2024/02/25 12:20:42;;;;;;;;;;;9.10;99.90;;;8.85;61.72;98966.50;4899045;29;20386;-80
2024/02/25 12:23:10;;;;;;;;;;;9.10;99.90;;;8.83;62.08;98969.38;4899438;29;19924;-80
2024/02/25 12:25:39;;;;;;;;;;;9.10;99.90;;;8.87;62.34;98953.78;4900482;29;19993;-80
2024/02/25 12:28:07;;;;;;;;;;;8.90;99.90;;;8.94;62.91;98962.44;4885271;29;19975;-81
2024/02/25 12:30:36;;;;;;;;;;;9.20;99.90;;;8.95;61.92;98956.88;4901205;29;19923;-80
2024/02/25 12:33:07;;;;;;;;;;;9.20;99.90;;;8.95;62.46;98954.22;4900931;29;19923;-80
2024/02/25 12:35:50;;;;;;;;;;;9.20;99.90;;;8.91;61.61;98950.41;4899927;29;20022;-80
2024/02/25 12:38:17;;;;;;;;;;;9.20;99.90;;;8.96;62.79;98952.34;4901366;29;19975;-80
2024/02/25 12:40:54;;;;;;;;;;;9.20;99.90;;;8.97;62.48;98952.09;4901233;29;19923;-79
2024/02/25 12:43:22;;;;;;;;;;;9.20;99.90;;;9.01;62.04;98949.78;4900156;29;19927;-80
2024/02/25 12:45:50;;;;;;;;;;;9.20;99.90;;;8.95;60.88;98948.09;4900745;29;20017;-80
2024/02/25 12:48:17;;;;;;;;;;;9.20;99.90;;;8.97;61.06;98948.66;4897471;29;19930;-80
2024/02/25 12:50:50;;;;;;;;;;;9.20;99.90;;;8.93;60.41;98945.69;4899346;29;19948;-79
2024/02/25 12:53:17;;;;;;;;;;;9.20;99.90;;;8.94;61.47;98944.63;4898684;29;19951;-79
2024/02/25 12:55:44;;;;;;;;;;;9.10;99.90;;;8.95;60.35;98946.22;4890280;29;19939;-80
2024/02/25 12:58:15;;;;;;;;;;;9.10;99.90;;;8.95;60.45;98945.44;4881657;29;20378;-80
2024/02/25 13:00:43;;;;;;;;;;;9.10;99.90;;;8.96;60.69;98949.69;4879622;29;19927;-79
2024/02/25 13:03:10;;;;;;;;;;;9.10;99.90;;;8.96;61.67;98939.88;4850004;29;19962;-80
2024/02/25 13:05:37;;;;;;;;;;;9.10;99.90;;;8.97;60.95;98936.16;4880324;29;19930;-80
2024/02/25 13:08:07;;;;;;;;;;;9.10;99.90;;;8.98;61.28;98934.34;4881146;29;19933;-80
2024/02/25 13:10:37;;;;;;;;;;;9.20;99.90;;;9.04;61.14;98938.69;4881021;29;19924;-80
2024/02/25 13:13:05;;;;;;;;;;;9.20;99.90;;;9.10;61.10;98927.09;4882056;29;20015;-81
2024/02/25 13:15:32;;;;;;;;;;;9.30;99.90;;;9.15;60.85;98934.34;4879892;29;19923;-81
2024/02/25 13:18:01;;;;;;;;;;;9.30;99.90;;;9.19;61.60;98930.16;4879212;29;20284;-82
2024/02/25 13:20:40;;;;;;;;;;;9.40;99.90;;;9.21;60.80;98923.53;4879457;29;19928;-81
2024/02/25 13:27:05;;;;;;;;;;;9.40;99.90;;;9.35;61.16;98909.94;4869671;29;19975;-81
2024/02/25 13:29:32;;;;;;;;;;;9.50;99.90;;;9.36;60.20;98908.88;4881047;29;20392;-81
2024/02/25 13:31:59;;;;;;;;;;;9.50;99.90;;;9.33;59.81;98904.88;4881227;29;19975;-81
2024/02/25 13:34:27;;;;;;;;;;;9.60;99.90;;;9.28;59.15;98907.44;4887947;29;19946;-80
2024/02/25 13:36:55;;;;;;;;;;;9.50;99.90;;;9.27;59.64;98906.66;4899704;29;19930;-84
2024/02/25 13:39:26;;;;;;;;;;;9.50;99.90;;;9.18;58.96;98905.44;4903394;29;20013;-84
2024/02/25 13:41:53;;;;;;;;;;;9.50;99.90;;;9.21;59.93;98902.25;4904822;29;19923;-84
2024/02/25 13:44:22;;;;;;;;;;;9.40;99.90;;;9.22;59.70;98914.53;4903365;29;19930;-79
2024/02/25 13:46:50;;;;;;;;;;;9.40;99.90;;;9.17;58.64;98905.66;4884487;29;20011;-80
2024/02/25 13:49:21;;;;;;;;;;;9.40;99.90;;;9.17;59.65;98906.44;4883999;29;20340;-80
2024/02/25 13:51:48;;;;;;;;;;;9.40;99.90;;;9.22;60.03;98903.06;4881843;29;19984;-80
2024/02/25 13:54:15;;;;;;;;;;;9.40;99.90;;;9.25;60.56;98895.41;4865630;29;19984;-79
2024/02/25 13:56:43;;;;;;;;;;;9.50;99.90;;;9.25;59.86;98891.97;4883489;29;20301;-79
2024/02/25 13:59:10;;;;;;;;;;;9.60;99.90;;;9.32;60.38;98886.47;4867431;29;19956;-79
2024/02/25 14:01:39;;;;;;;;;;;9.50;99.90;;;9.38;61.22;98888.19;4882208;29;19930;-80
2024/02/25 14:04:07;;;;;;;;;;;9.60;99.90;;;9.40;60.62;98886.06;4884549;29;20019;-80
2024/02/25 14:06:37;;;;;;;;;;;9.60;99.90;;;9.37;61.32;98899.84;4869325;29;20299;-80
2024/02/25 14:09:07;;;;;;;;;;;9.50;99.90;;;9.30;61.87;98894.69;4884850;29;20376;-80
2024/02/25 14:11:37;;;;;;;;;;;9.50;99.90;;;9.31;62.52;98895.50;4883672;29;19924;-80
2024/02/25 14:14:04;;;;;;;;;;;9.40;99.90;;;9.24;62.66;98906.31;4885416;29;19924;-80
2024/02/25 14:16:34;;;;;;;;;;;9.40;99.90;;;9.09;62.66;98932.66;4868577;29;19931;-81
2024/02/25 14:19:04;;;;;;;;;;;9.30;99.90;;;8.72;66.08;98941.81;4884853;29;20332;-80
2024/02/25 14:21:35;;;;;;;;;;;9.10;99.90;;;8.54;66.69;98939.34;4884626;29;19924;-80
2024/02/25 14:24:04;;;;;;;;;;;8.80;99.90;;;8.32;68.30;98940.97;4882689;29;19930;-80
2024/02/25 14:26:31;;;;;;;;;;;8.60;99.90;;;8.38;68.67;98937.41;4883497;29;19928;-80
2024/02/25 14:28:59;;;;;;;;;;;8.50;99.90;;;8.34;69.63;98947.66;4883576;29;19931;-80
2024/02/25 14:31:27;;;;;;;;;;;8.50;99.90;;;8.40;70.19;98946.78;4884914;29;20043;-80
2024/02/25 14:33:54;;;;;;;;;;;8.40;99.90;;;8.42;70.28;98943.88;4885616;29;19948;-80
2024/02/25 14:36:22;;;;;;;;;;;8.40;99.90;;;8.50;70.71;98940.84;4884433;29;20026;-80
2024/02/25 14:38:50;;;;;;;;;;;8.50;99.90;;;8.57;70.78;98935.41;4883723;29;19930;-81
2024/02/25 14:41:17;;;;;;;;;;;8.50;99.90;;;8.63;71.27;98943.22;4881589;29;19931;-80
2024/02/25 14:43:44;;;;;;;;;;;8.60;99.90;;;8.69;71.85;98941.50;4881610;29;19924;-80
2024/02/25 14:46:12;;;;;;;;;;;8.60;99.90;;;8.73;72.03;98931.97;4883226;29;19970;-80
2024/02/25 14:48:40;;;;;;;;;;;8.70;99.90;;;8.73;72.31;98932.78;4881340;29;19924;-80
2024/02/25 14:51:08;;;;;;;;;;;8.70;99.90;;;8.73;72.39;98921.34;4883433;29;19924;-80
2024/02/25 14:53:37;;;;;;;;;;;8.70;99.90;;;8.78;72.83;98924.09;4881403;29;19923;-80
2024/02/25 14:56:06;;;;;;;;;;;8.70;99.90;;;8.80;72.60;98922.03;4881768;29;20311;-80
2024/02/25 14:58:37;;;;;;;;;;;8.70;99.90;;;8.77;72.33;98915.31;4881662;29;19931;-80
2024/02/25 15:01:05;;;;;;;;;;;8.70;99.90;;;8.83;72.75;98912.75;4881290;29;19930;-79
2024/02/25 15:03:33;;;;;;;;;;;8.80;99.90;;;8.88;72.67;98915.50;4881647;29;19980;-80
2024/02/25 15:06:01;;;;;;;;;;;8.80;99.90;;;8.92;72.51;98906.00;4881438;29;19966;-80
2024/02/25 15:08:28;;;;;;;;;;;8.80;99.90;;;8.97;72.30;98904.25;4865701;29;20010;-80
2024/02/25 15:10:57;;;;;;;;;;;8.90;99.90;;;8.97;72.47;98896.28;4880781;29;20372;-80
2024/02/25 15:13:24;;;;;;;;;;;8.90;99.90;;;8.98;72.47;98895.25;4881188;29;19927;-80
2024/02/25 15:15:51;;;;;;;;;;;8.90;99.90;;;8.97;72.40;98893.63;4880767;29;20376;-81
2024/02/25 15:18:21;;;;;;;;;;;8.90;99.90;;;8.96;71.90;98897.31;4887760;29;19924;-81
2024/02/25 15:20:49;;;;;;;;;;;8.80;99.90;;;8.95;71.71;98900.22;4883558;29;20419;-81
2024/02/25 15:23:16;;;;;;;;;;;8.80;99.90;;;8.93;71.73;98887.19;4898938;29;19929;-80
2024/02/25 15:25:44;;;;;;;;;;;8.80;99.90;;;8.93;71.75;98883.69;4865619;29;19947;-81
2024/02/25 15:28:13;;;;;;;;;;;8.80;99.90;;;8.91;71.87;98889.25;4881548;29;20014;-85
2024/02/25 15:30:42;;;;;;;;;;;8.80;99.90;;;8.92;71.63;98888.22;4881204;29;19928;-80
2024/02/25 15:33:09;;;;;;;;;;;8.70;99.90;;;8.93;71.64;98881.03;4881122;29;19975;-80
2024/02/25 15:35:36;;;;;;;;;;;8.70;99.90;;;8.92;71.47;98874.09;4883709;29;19951;-81
2024/02/25 15:38:04;;;;;;;;;;;8.70;99.90;;;8.91;71.42;98883.13;4882455;29;20289;-80
2024/02/25 15:40:34;;;;;;;;;;;8.70;99.90;;;8.92;70.99;98876.78;4883044;29;20372;-80
2024/02/25 15:43:02;;;;;;;;;;;8.70;99.90;;;8.91;70.38;98868.00;4884429;29;19930;-81
2024/02/25 15:45:31;;;;;;;;;;;8.70;99.90;;;8.91;70.32;98875.97;4852298;29;19924;-81
2024/02/25 15:47:59;;;;;;;;;;;8.70;99.90;;;8.90;70.19;98866.38;4884222;29;19929;-80
2024/02/25 15:50:26;;;;;;;;;;;8.70;99.90;;;8.91;69.99;98865.34;4882396;29;20026;-81
2024/02/25 15:52:55;;;;;;;;;;;8.70;99.90;;;8.91;69.99;98861.88;4884099;29;19924;-80
2024/02/25 15:55:23;;;;;;;;;;;8.70;99.90;;;8.91;69.99;98862.66;4851310;29;19924;-81
2024/02/25 15:57:50;;;;;;;;;;;8.70;99.90;;;8.90;70.01;98854.94;4884730;29;20376;-81
2024/02/25 16:00:19;;;;;;;;;;;8.70;99.90;;;8.87;69.76;98852.75;4835444;29;20126;-80
2024/02/25 16:02:48;;;;;;;;;;;8.60;99.90;;;8.86;69.65;98843.97;4852964;29;19991;-81
2024/02/25 16:05:16;;;;;;;;;;;8.60;99.90;;;8.87;69.65;98842.94;4884621;29;19948;-80
2024/02/25 16:07:46;;;;;;;;;;;8.60;99.90;;;8.87;69.95;98848.25;4884212;29;19946;-81
2024/02/25 16:10:13;;;;;;;;;;;8.60;99.90;;;8.87;70.12;98834.16;4884155;29;19924;-80
2024/02/25 16:12:40;;;;;;;;;;;8.60;99.90;;;8.87;70.16;98839.47;4882338;29;19923;-81
2024/02/25 16:15:09;;;;;;;;;;;8.60;99.90;;;8.85;70.46;98833.59;4882440;29;20113;-81
2024/02/25 16:17:38;;;;;;;;;;;8.60;99.90;;;8.84;70.17;98835.44;4883777;29;19988;-80
2024/02/25 16:20:08;;;;;;;;;;;8.60;99.90;;;8.85;70.09;98833.59;4881972;29;19924;-81